createdAt,value
2023-03-16T00:02:12.953Z,28.31
2023-03-16T00:04:39.542Z,28.22
2023-03-16T00:07:09.583Z,28.14
2023-03-16T00:09:36.674Z,28.30
2023-03-16T00:12:05.662Z,28.39
2023-03-16T00:14:32.034Z,28.25
2023-03-16T00:16:58.598Z,28.11
2023-03-16T00:19:24.958Z,28.21
2023-03-16T00:21:51.436Z,28.03
2023-03-16T00:24:20.701Z,28.18
2023-03-16T00:26:47.270Z,28.23
2023-03-16T00:29:13.594Z,28.39
2023-03-16T00:31:40.397Z,28.04
2023-03-16T00:34:07.130Z,27.96
2023-03-16T00:36:33.898Z,27.89
2023-03-16T00:39:00.210Z,27.97
2023-03-16T00:41:26.526Z,28.06
2023-03-16T00:43:53.716Z,28.08
2023-03-16T00:46:20.126Z,28.24
2023-03-16T00:48:46.633Z,28.23
2023-03-16T00:51:14.761Z,28.34
2023-03-16T00:53:41.750Z,28.32
2023-03-16T00:56:08.601Z,28.35
2023-03-16T00:58:35.803Z,28.30
2023-03-16T01:01:02.803Z,28.40
2023-03-16T01:03:29.311Z,28.34
2023-03-16T01:05:59.934Z,28.23
2023-03-16T01:08:28.003Z,28.41
2023-03-16T01:10:54.758Z,28.31
2023-03-16T01:13:21.340Z,28.43
2023-03-16T01:15:50.033Z,28.29
2023-03-16T01:18:16.361Z,28.24
2023-03-16T01:20:50.435Z,28.47
2023-03-16T01:23:17.732Z,28.45
2023-03-16T01:25:44.108Z,28.38
2023-03-16T01:28:10.419Z,28.36
2023-03-16T01:30:36.821Z,28.45
2023-03-16T01:33:03.886Z,28.37
2023-03-16T01:35:30.246Z,28.49
2023-03-16T01:37:56.577Z,28.28
2023-03-16T01:40:22.939Z,28.44
2023-03-16T01:42:50.048Z,28.29
2023-03-16T01:45:34.827Z,28.40
2023-03-16T01:48:01.143Z,28.31
2023-03-16T01:50:27.712Z,28.48
2023-03-16T01:52:54.156Z,28.37
2023-03-16T01:55:20.500Z,28.39
2023-03-16T01:57:46.818Z,28.47
2023-03-16T02:00:20.972Z,28.52
2023-03-16T02:02:48.546Z,28.36
2023-03-16T02:05:29.655Z,28.58
2023-03-16T02:07:58.880Z,28.55
2023-03-16T02:10:26.692Z,28.51
2023-03-16T02:12:53.439Z,28.49
2023-03-16T02:15:19.811Z,28.47
2023-03-16T02:17:46.331Z,28.58
2023-03-16T02:20:31.412Z,28.53
2023-03-16T02:22:57.713Z,28.51
2023-03-16T02:25:25.800Z,28.61
2023-03-16T02:28:12.262Z,28.42
2023-03-16T02:30:38.585Z,28.33
2023-03-16T02:33:05.213Z,28.56
2023-03-16T02:35:31.914Z,28.40
2023-03-16T02:37:58.348Z,28.24
2023-03-16T02:40:31.545Z,28.34
2023-03-16T02:43:04.337Z,28.39
2023-03-16T02:45:37.970Z,28.38
2023-03-16T02:48:05.657Z,28.35
2023-03-16T02:50:32.012Z,28.38
2023-03-16T02:52:58.332Z,28.43
2023-03-16T02:55:24.656Z,28.41
2023-03-16T02:57:52.203Z,28.36
2023-03-16T03:00:19.305Z,28.41
2023-03-16T03:02:45.628Z,28.53
2023-03-16T03:05:12.129Z,28.62
2023-03-16T03:07:38.461Z,28.50
2023-03-16T03:10:06.015Z,28.71
2023-03-16T03:12:32.824Z,28.45
2023-03-16T03:14:59.223Z,28.41
2023-03-16T03:17:30.020Z,28.34
2023-03-16T03:19:57.223Z,28.35
2023-03-16T03:22:23.550Z,28.53
2023-03-16T03:24:49.861Z,28.40
2023-03-16T03:27:16.422Z,28.46
2023-03-16T03:29:42.736Z,28.49
2023-03-16T03:32:09.063Z,28.45
2023-03-16T03:34:35.411Z,28.27
2023-03-16T03:37:01.859Z,28.21
2023-03-16T03:39:28.427Z,28.10
2023-03-16T03:41:54.757Z,28.26
2023-03-16T03:44:24.029Z,28.52
2023-03-16T03:46:51.537Z,28.47
2023-03-16T03:49:18.330Z,28.41
2023-03-16T03:51:44.682Z,28.29
2023-03-16T03:54:11.247Z,28.27
2023-03-16T03:56:37.592Z,28.21
2023-03-16T03:59:03.899Z,28.60
2023-03-16T04:01:30.730Z,28.63
2023-03-16T04:03:57.094Z,28.71
2023-03-16T04:06:23.431Z,28.40
2023-03-16T04:08:51.007Z,28.49
2023-03-16T04:11:17.345Z,28.38
2023-03-16T04:13:43.647Z,28.16
2023-03-16T04:16:09.977Z,27.94
2023-03-16T04:18:39.010Z,28.08
2023-03-16T04:21:06.196Z,28.03
2023-03-16T04:23:33.474Z,28.11
2023-03-16T04:25:59.814Z,28.11
2023-03-16T04:28:26.434Z,28.26
2023-03-16T04:30:54.572Z,28.18
2023-03-16T04:33:21.620Z,28.21
2023-03-16T04:35:48.282Z,28.60
2023-03-16T04:38:14.723Z,28.59
2023-03-16T04:40:41.076Z,28.61
2023-03-16T04:43:07.466Z,28.54
2023-03-16T04:45:33.805Z,28.30
2023-03-16T04:48:00.153Z,28.26
2023-03-16T04:50:26.541Z,28.23
2023-03-16T04:52:52.957Z,28.35
2023-03-16T04:55:19.527Z,28.16
2023-03-16T04:57:45.933Z,28.23
2023-03-16T05:00:18.866Z,28.19
2023-03-16T05:02:45.855Z,28.54
2023-03-16T05:05:12.178Z,28.58
2023-03-16T05:07:38.607Z,28.44
2023-03-16T05:10:05.024Z,28.17
2023-03-16T05:12:31.353Z,28.15
2023-03-16T05:14:57.770Z,28.46
2023-03-16T05:17:24.357Z,28.31
2023-03-16T05:19:50.665Z,28.19
2023-03-16T05:22:17.148Z,28.24
2023-03-16T05:24:43.518Z,28.20
2023-03-16T05:27:09.836Z,28.10
2023-03-16T05:29:36.155Z,28.32
2023-03-16T05:32:02.472Z,28.34
2023-03-16T05:34:28.789Z,28.42
2023-03-16T05:36:55.120Z,28.61
2023-03-16T05:39:22.131Z,28.48
2023-03-16T05:41:48.645Z,28.13
2023-03-16T05:44:14.992Z,28.23
2023-03-16T05:46:41.377Z,28.35
2023-03-16T05:49:07.716Z,28.26
2023-03-16T05:51:34.112Z,28.23
2023-03-16T05:54:00.653Z,28.19
2023-03-16T05:56:27.295Z,28.05
2023-03-16T05:58:54.003Z,28.45
2023-03-16T06:01:20.425Z,28.66
2023-03-16T06:03:47.330Z,28.14
2023-03-16T06:06:13.751Z,28.23
2023-03-16T06:08:40.069Z,27.89
2023-03-16T06:11:06.397Z,28.18
2023-03-16T06:13:32.717Z,28.15
2023-03-16T06:15:59.099Z,28.06
2023-03-16T06:18:25.424Z,28.01
2023-03-16T06:20:52.159Z,27.95
2023-03-16T06:23:20.447Z,27.97
2023-03-16T06:25:47.239Z,28.02
2023-03-16T06:28:13.606Z,27.83
2023-03-16T06:30:40.334Z,27.86
2023-03-16T06:33:06.782Z,28.10
2023-03-16T06:35:33.518Z,27.86
2023-03-16T06:37:59.887Z,28.10
2023-03-16T06:40:26.669Z,28.13
2023-03-16T06:42:53.388Z,28.44
2023-03-16T06:45:22.116Z,28.10
2023-03-16T06:47:48.572Z,28.20
2023-03-16T06:50:14.964Z,28.06
2023-03-16T06:52:41.638Z,27.95
2023-03-16T06:55:08.243Z,27.89
2023-03-16T06:57:34.579Z,28.17
2023-03-16T07:00:01.615Z,28.14
2023-03-16T07:02:28.036Z,28.14
2023-03-16T07:04:54.409Z,28.15
2023-03-16T07:07:21.868Z,28.24
2023-03-16T07:09:48.188Z,28.15
2023-03-16T07:12:14.553Z,28.10
2023-03-16T07:14:42.020Z,28.21
2023-03-16T07:17:08.374Z,28.14
2023-03-16T07:19:34.683Z,28.30
2023-03-16T07:22:02.705Z,28.23
2023-03-16T07:24:29.624Z,28.13
2023-03-16T07:26:56.232Z,28.02
2023-03-16T07:29:22.558Z,28.09
2023-03-16T07:31:49.181Z,27.55
2023-03-16T07:34:15.835Z,27.79
2023-03-16T07:36:42.164Z,27.66
2023-03-16T07:39:08.528Z,27.46
2023-03-16T07:41:35.168Z,27.41
2023-03-16T07:44:01.492Z,27.44
2023-03-16T07:46:27.903Z,27.51
2023-03-16T07:48:54.244Z,27.40
2023-03-16T07:51:21.328Z,27.70
2023-03-16T07:53:47.636Z,27.78
2023-03-16T07:56:14.002Z,27.65
2023-03-16T07:58:40.615Z,27.92
2023-03-16T08:01:06.988Z,27.76
2023-03-16T08:03:33.318Z,28.05
2023-03-16T08:05:59.678Z,27.92
2023-03-16T08:08:26.046Z,28.04
2023-03-16T08:10:53.175Z,28.00
2023-03-16T08:13:20.489Z,28.12
2023-03-16T08:15:50.308Z,28.45
2023-03-16T08:18:17.113Z,28.14
2023-03-16T08:20:44.613Z,28.26
2023-03-16T08:23:13.116Z,28.31
2023-03-16T08:25:39.464Z,28.14
2023-03-16T08:28:05.959Z,28.21
2023-03-16T08:30:32.538Z,28.30
2023-03-16T08:33:01.467Z,28.39
2023-03-16T08:35:29.008Z,28.22
2023-03-16T08:37:55.525Z,28.13
2023-03-16T08:40:25.225Z,28.20
2023-03-16T08:42:52.387Z,28.18
2023-03-16T08:45:19.954Z,28.21
2023-03-16T08:47:46.289Z,28.10
2023-03-16T08:50:15.606Z,28.01
2023-03-16T08:52:42.764Z,28.08
2023-03-16T08:55:10.913Z,28.14
2023-03-16T08:57:38.723Z,28.04
2023-03-16T09:00:14.839Z,27.83
2023-03-16T09:02:41.717Z,27.92
2023-03-16T09:05:08.834Z,28.03
2023-03-16T09:07:36.302Z,27.92
2023-03-16T09:10:05.510Z,27.97
2023-03-16T09:12:32.318Z,27.79
2023-03-16T09:14:58.726Z,27.90
2023-03-16T09:17:25.062Z,27.88
2023-03-16T09:19:53.357Z,28.08
2023-03-16T09:22:21.001Z,28.01
2023-03-16T09:24:48.362Z,27.94
2023-03-16T09:27:15.415Z,27.94
2023-03-16T09:29:42.596Z,28.04
2023-03-16T09:32:09.250Z,28.11
2023-03-16T09:34:35.570Z,28.04
2023-03-16T09:37:02.538Z,27.89
2023-03-16T09:39:28.875Z,28.03
2023-03-16T09:42:34.883Z,28.05
2023-03-16T09:45:21.086Z,28.01
2023-03-16T09:47:47.836Z,27.86
2023-03-16T09:50:16.564Z,27.50
2023-03-16T09:52:56.835Z,27.52
2023-03-16T09:55:26.828Z,27.08
2023-03-16T09:57:53.513Z,27.15
2023-03-16T10:00:20.629Z,27.30
2023-03-16T10:02:51.053Z,28.67
2023-03-16T10:05:17.452Z,32.67
2023-03-16T10:07:53.780Z,33.36
2023-03-16T10:10:22.175Z,32.78
2023-03-16T10:12:50.320Z,31.48
2023-03-16T10:15:17.400Z,31.38
2023-03-16T10:17:51.430Z,30.80
2023-03-16T10:20:18.504Z,30.66
2023-03-16T10:22:45.486Z,28.79
2023-03-16T10:25:20.825Z,28.66
2023-03-16T10:27:48.127Z,28.37
2023-03-16T10:30:19.788Z,27.98
2023-03-16T10:32:46.384Z,27.63
2023-03-16T10:35:31.797Z,27.27
2023-03-16T10:37:58.606Z,27.04
2023-03-16T10:40:25.204Z,27.05
2023-03-16T10:42:51.601Z,26.40
2023-03-16T10:45:27.294Z,26.07
2023-03-16T10:47:54.301Z,26.32
2023-03-16T10:50:25.066Z,25.43
2023-03-16T10:52:53.161Z,25.47
2023-03-16T10:55:23.226Z,25.24
2023-03-16T10:57:55.009Z,25.08
2023-03-16T11:00:22.777Z,24.93
2023-03-16T11:02:49.477Z,24.94
2023-03-16T11:05:18.833Z,25.04
2023-03-16T11:07:49.817Z,24.78
2023-03-16T11:10:27.890Z,24.72
2023-03-16T11:12:56.369Z,24.61
2023-03-16T11:15:26.076Z,24.63
2023-03-16T11:17:53.535Z,24.82
2023-03-16T11:20:23.859Z,24.55
2023-03-16T11:22:51.128Z,24.51
2023-03-16T11:25:18.286Z,24.52
2023-03-16T11:28:04.036Z,24.57
2023-03-16T11:30:31.010Z,24.42
2023-03-16T11:33:00.189Z,24.16
2023-03-16T11:35:29.772Z,24.30
2023-03-16T11:37:56.872Z,24.11
2023-03-16T11:40:33.147Z,24.20
2023-03-16T11:43:02.756Z,23.94
2023-03-16T11:45:45.653Z,24.05
2023-03-16T11:48:14.774Z,23.83
2023-03-16T11:50:41.012Z,23.81
2023-03-16T11:53:07.256Z,23.53
2023-03-16T11:55:33.519Z,23.62
2023-03-16T11:58:15.236Z,23.53
2023-03-16T12:00:41.520Z,23.65
2023-03-16T12:03:27.229Z,23.59
2023-03-16T12:05:58.232Z,23.51
2023-03-16T12:08:26.794Z,23.70
2023-03-16T12:11:04.224Z,23.84
2023-03-16T12:13:34.504Z,23.94
2023-03-16T12:16:03.048Z,24.08
2023-03-16T12:18:36.040Z,24.13
2023-03-16T12:21:07.752Z,24.22
2023-03-16T12:23:35.955Z,24.23
2023-03-16T12:26:03.488Z,24.44
2023-03-16T12:28:29.971Z,24.49
2023-03-16T12:31:03.273Z,24.64
2023-03-16T12:33:38.956Z,24.80
2023-03-16T12:36:23.745Z,24.98
2023-03-16T12:39:09.895Z,25.13
2023-03-16T12:41:41.557Z,24.86
2023-03-16T12:44:23.267Z,25.33
2023-03-16T12:46:53.425Z,25.23
2023-03-16T12:49:20.925Z,25.39
2023-03-16T12:51:49.013Z,25.32
2023-03-16T12:54:19.366Z,25.52
2023-03-16T12:56:46.879Z,25.53
2023-03-16T12:59:16.955Z,25.54
2023-03-16T13:01:44.091Z,25.66
2023-03-16T13:04:20.926Z,25.69
2023-03-16T13:06:49.092Z,26.01
2023-03-16T13:09:19.472Z,25.66
2023-03-16T13:11:50.134Z,25.87
2023-03-16T13:14:35.240Z,25.71
2023-03-16T13:17:06.421Z,25.82
2023-03-16T13:19:37.548Z,25.83
2023-03-16T13:22:05.707Z,26.03
2023-03-16T13:24:35.993Z,25.79
2023-03-16T13:27:03.788Z,25.96
2023-03-16T13:29:30.743Z,25.91
2023-03-16T13:31:58.192Z,25.71
2023-03-16T13:34:31.265Z,25.68
2023-03-16T13:36:58.145Z,25.74
2023-03-16T13:39:28.648Z,26.01
2023-03-16T13:42:04.842Z,25.80
2023-03-16T13:44:31.299Z,25.84
2023-03-16T13:46:57.877Z,26.01
2023-03-16T13:49:24.218Z,25.90
2023-03-16T13:51:50.617Z,25.89
2023-03-16T13:54:24.143Z,26.00
2023-03-16T13:56:51.460Z,25.93
2023-03-16T13:59:18.356Z,26.11
2023-03-16T14:01:45.165Z,25.81
2023-03-16T14:04:14.056Z,25.85
2023-03-16T14:06:41.318Z,25.97
2023-03-16T14:09:15.397Z,26.17
2023-03-16T14:11:42.897Z,26.05
2023-03-16T14:14:15.910Z,26.27
2023-03-16T14:16:42.429Z,26.35
2023-03-16T14:19:14.708Z,26.14
2023-03-16T14:21:43.004Z,26.24
2023-03-16T14:24:16.631Z,26.17
2023-03-16T14:26:46.508Z,26.32
2023-03-16T14:29:24.827Z,26.27
2023-03-16T14:31:51.529Z,26.15
2023-03-16T14:34:22.094Z,26.36
2023-03-16T14:36:48.441Z,26.35
2023-03-16T14:39:17.241Z,26.39
2023-03-16T14:41:43.829Z,26.37
2023-03-16T14:44:17.526Z,26.29
2023-03-16T14:46:43.933Z,26.32
2023-03-16T14:49:19.981Z,26.42
2023-03-16T14:51:46.554Z,26.36
2023-03-16T14:54:13.865Z,26.48
2023-03-16T14:56:42.263Z,26.39
2023-03-16T14:59:09.024Z,26.60
2023-03-16T15:01:35.413Z,26.46
2023-03-16T15:04:02.301Z,26.79
2023-03-16T15:06:31.147Z,26.53
2023-03-16T15:08:57.465Z,26.85
2023-03-16T15:11:24.636Z,26.72
2023-03-16T15:13:50.966Z,26.89
2023-03-16T15:16:17.343Z,26.86
2023-03-16T15:18:44.227Z,26.78
2023-03-16T15:21:14.278Z,26.79
2023-03-16T15:23:41.431Z,26.82
2023-03-16T15:26:08.660Z,26.96
2023-03-16T15:28:34.986Z,27.04
2023-03-16T15:31:03.337Z,27.08
2023-03-16T15:33:29.718Z,27.24
2023-03-16T15:35:57.017Z,27.13
2023-03-16T15:38:30.087Z,27.27
2023-03-16T15:40:56.407Z,27.09
2023-03-16T15:43:24.499Z,27.16
2023-03-16T15:45:52.282Z,27.27
2023-03-16T15:48:21.560Z,27.25
2023-03-16T15:50:50.224Z,27.34
2023-03-16T15:53:30.832Z,27.30
2023-03-16T15:55:59.578Z,27.40
2023-03-16T15:58:27.592Z,27.38
2023-03-16T16:00:57.183Z,27.38
2023-03-16T16:03:23.784Z,27.26
2023-03-16T16:05:50.179Z,27.38
2023-03-16T16:08:16.836Z,27.23
2023-03-16T16:10:43.165Z,27.45
2023-03-16T16:13:17.988Z,27.31
2023-03-16T16:15:45.178Z,27.45
2023-03-16T16:18:23.208Z,27.22
2023-03-16T16:20:51.295Z,27.40
2023-03-16T16:23:18.033Z,27.41
2023-03-16T16:25:44.942Z,27.31
2023-03-16T16:28:12.747Z,27.19
2023-03-16T16:30:39.836Z,27.19
2023-03-16T16:33:19.716Z,27.16
2023-03-16T16:35:46.514Z,27.06
2023-03-16T16:38:12.839Z,27.62
2023-03-16T16:40:40.843Z,27.17
2023-03-16T16:43:07.149Z,27.56
2023-03-16T16:45:33.520Z,27.59
2023-03-16T16:47:59.886Z,27.39
2023-03-16T16:50:26.303Z,27.54
2023-03-16T16:52:52.952Z,27.63
2023-03-16T16:55:19.560Z,27.57
2023-03-16T16:57:46.143Z,27.87
2023-03-16T17:00:19.975Z,27.75
2023-03-16T17:02:51.616Z,27.67
2023-03-16T17:05:22.177Z,27.86
2023-03-16T17:07:48.792Z,27.94
2023-03-16T17:10:25.286Z,27.84
2023-03-16T17:12:52.095Z,28.15
2023-03-16T17:15:25.977Z,27.90
2023-03-16T17:17:52.655Z,27.78
2023-03-16T17:20:20.011Z,27.98
2023-03-16T17:22:49.351Z,28.07
2023-03-16T17:25:16.379Z,28.32
2023-03-16T17:27:43.473Z,28.12
2023-03-16T17:30:12.952Z,28.58
2023-03-16T17:32:39.308Z,28.61
2023-03-16T17:35:12.673Z,28.40
2023-03-16T17:37:39.033Z,28.60
2023-03-16T17:40:06.674Z,28.57
2023-03-16T17:42:33.035Z,28.53
2023-03-16T17:44:59.926Z,28.68
2023-03-16T17:47:26.687Z,28.82
2023-03-16T17:49:53.362Z,28.89
2023-03-16T17:52:20.654Z,28.76
2023-03-16T17:54:47.148Z,28.60
2023-03-16T17:57:16.299Z,28.54
2023-03-16T17:59:42.618Z,28.81
2023-03-16T18:02:23.821Z,28.51
2023-03-16T18:04:50.136Z,28.41
2023-03-16T18:07:16.453Z,28.60
2023-03-16T18:09:43.420Z,28.43
2023-03-16T18:12:09.798Z,28.65
2023-03-16T18:14:36.621Z,28.47
2023-03-16T18:17:27.200Z,28.37
2023-03-16T18:19:53.660Z,28.68
2023-03-16T18:22:20.507Z,28.55
2023-03-16T18:24:48.426Z,28.39
2023-03-16T18:27:14.747Z,28.46
2023-03-16T18:29:41.964Z,28.64
2023-03-16T18:32:17.126Z,28.62
2023-03-16T18:34:43.433Z,28.47
2023-03-16T18:37:13.339Z,28.32
2023-03-16T18:39:39.664Z,28.34
2023-03-16T18:42:06.816Z,28.55
2023-03-16T18:44:33.661Z,28.45
2023-03-16T18:47:01.180Z,28.08
2023-03-16T18:49:32.048Z,28.07
2023-03-16T18:51:58.396Z,27.72
2023-03-16T18:54:31.163Z,27.82
2023-03-16T18:57:00.479Z,27.97
2023-03-16T18:59:26.789Z,28.41
2023-03-16T19:01:53.187Z,28.33
2023-03-16T19:04:26.408Z,28.21
2023-03-16T19:06:53.944Z,28.15
2023-03-16T19:09:20.447Z,28.26
2023-03-16T19:11:46.929Z,28.28
2023-03-16T19:14:17.360Z,28.25
2023-03-16T19:16:44.057Z,28.36
2023-03-16T19:19:10.488Z,28.36
2023-03-16T19:21:37.637Z,28.09
2023-03-16T19:24:05.283Z,28.07
2023-03-16T19:26:32.341Z,28.10
2023-03-16T19:28:58.644Z,28.26
2023-03-16T19:31:25.979Z,28.22
2023-03-16T19:33:52.447Z,28.03
2023-03-16T19:36:19.758Z,28.19
2023-03-16T19:38:46.429Z,28.20
2023-03-16T19:41:28.919Z,28.16
2023-03-16T19:43:57.583Z,27.89
2023-03-16T19:46:25.928Z,27.90
2023-03-16T19:48:52.523Z,27.82
2023-03-16T19:51:18.943Z,28.06
2023-03-16T19:53:45.440Z,28.58
2023-03-16T19:56:12.653Z,28.74
2023-03-16T19:58:39.250Z,29.20
2023-03-16T20:01:06.284Z,29.31
2023-03-16T20:03:33.600Z,29.53
2023-03-16T20:05:59.929Z,29.39
2023-03-16T20:08:27.264Z,29.40
2023-03-16T20:10:59.058Z,29.24
2023-03-16T20:13:25.523Z,28.77
2023-03-16T20:15:51.949Z,29.58
2023-03-16T20:18:18.953Z,28.48
2023-03-16T20:20:45.425Z,28.75
2023-03-16T20:23:22.072Z,29.20
2023-03-16T20:25:48.690Z,28.66
2023-03-16T20:28:22.332Z,28.48
2023-03-16T20:30:48.764Z,28.23
2023-03-16T20:33:19.017Z,28.14
2023-03-16T20:35:45.718Z,27.93
2023-03-16T20:38:12.798Z,27.64
2023-03-16T20:40:42.607Z,27.52
2023-03-16T20:43:31.329Z,27.83
2023-03-16T20:45:58.955Z,27.54
2023-03-16T20:48:25.573Z,27.07
2023-03-16T20:50:52.376Z,27.21
2023-03-16T20:53:18.884Z,26.99
2023-03-16T20:55:46.139Z,27.07
2023-03-16T20:58:19.720Z,27.67
2023-03-16T21:00:46.749Z,27.59
2023-03-16T21:03:17.470Z,27.29
2023-03-16T21:05:44.592Z,26.81
2023-03-16T21:08:10.964Z,26.26
2023-03-16T21:10:37.268Z,26.26
2023-03-16T21:13:03.827Z,26.78
2023-03-16T21:15:30.945Z,26.63
2023-03-16T21:17:58.726Z,27.10
2023-03-16T21:20:25.727Z,27.00
2023-03-16T21:22:52.054Z,27.11
2023-03-16T21:25:25.992Z,27.11
2023-03-16T21:27:52.719Z,27.09
2023-03-16T21:30:22.517Z,27.34
2023-03-16T21:32:48.851Z,26.99
2023-03-16T21:35:15.181Z,26.91
2023-03-16T21:37:41.504Z,27.06
2023-03-16T21:40:18.071Z,27.09
2023-03-16T21:42:44.666Z,26.48
2023-03-16T21:45:11.115Z,26.99
2023-03-16T21:47:37.749Z,26.59
2023-03-16T21:50:09.957Z,26.55
2023-03-16T21:52:36.389Z,26.71
2023-03-16T21:55:02.705Z,26.35
2023-03-16T21:57:29.027Z,26.33
2023-03-16T21:59:55.345Z,26.30
2023-03-16T22:02:22.779Z,26.48
2023-03-16T22:04:49.824Z,27.04
2023-03-16T22:07:16.148Z,27.04
2023-03-16T22:09:42.477Z,26.72
2023-03-16T22:12:10.580Z,26.25
2023-03-16T22:14:36.887Z,26.78
2023-03-16T22:17:03.263Z,26.75
2023-03-16T22:19:29.731Z,26.18
2023-03-16T22:21:56.843Z,26.52
2023-03-16T22:24:23.845Z,27.36
2023-03-16T22:26:50.878Z,27.02
2023-03-16T22:29:23.904Z,26.97
2023-03-16T22:31:50.437Z,26.79
2023-03-16T22:34:24.681Z,26.86
2023-03-16T22:36:51.009Z,27.51
2023-03-16T22:39:17.668Z,27.49
2023-03-16T22:41:44.000Z,27.31
2023-03-16T22:44:16.905Z,27.26
2023-03-16T22:46:43.232Z,27.28
2023-03-16T22:49:13.559Z,27.41
2023-03-16T22:51:39.878Z,27.35
2023-03-16T22:54:09.506Z,27.00
2023-03-16T22:56:36.057Z,27.73
2023-03-16T22:59:03.389Z,27.34
2023-03-16T23:01:32.424Z,27.40
2023-03-16T23:03:58.741Z,27.47
2023-03-16T23:06:26.461Z,27.42
2023-03-16T23:08:52.987Z,27.71
2023-03-16T23:11:21.407Z,27.51
2023-03-16T23:13:47.722Z,27.79
2023-03-16T23:16:21.395Z,27.44
2023-03-16T23:18:48.182Z,27.52
2023-03-16T23:21:14.842Z,27.76
2023-03-16T23:23:43.055Z,27.64
2023-03-16T23:26:16.391Z,27.33
2023-03-16T23:28:43.243Z,27.81
2023-03-16T23:31:12.846Z,27.92
2023-03-16T23:33:39.168Z,27.50
2023-03-16T23:36:09.970Z,27.86
2023-03-16T23:38:36.313Z,27.76
2023-03-16T23:41:02.678Z,27.84
2023-03-16T23:43:29.005Z,27.76
2023-03-16T23:45:55.584Z,27.72
2023-03-16T23:48:22.127Z,27.82
2023-03-16T23:50:49.217Z,27.64
2023-03-16T23:53:16.503Z,27.87
2023-03-16T23:55:42.974Z,27.92
2023-03-16T23:58:09.508Z,28.18
